Time;durP1;ratioP1;P1;durP2;ratioP2;P2;SDS_P1;SDS_P2;PMS_P1;PMS_P2;Temp;Humidity;BMP_temperature;BMP_pressure;BME280_temperature;BME280_humidity;BME280_pressure;Samples;Min_cycle;Max_cycle;Signal;HPM_P1;HPM_P2
2023/03/10 00:00:44;;;;;;;16.23;9.20;;;2.20;99.90;;;;;;4998121;28;20043;-77
2023/03/10 00:03:10;;;;;;;16.83;9.70;;;2.20;99.90;;;;;;4993809;28;20438;-77
2023/03/10 00:05:37;;;;;;;19.23;9.90;;;2.20;99.90;;;;;;4997123;28;20380;-77
2023/03/10 00:08:03;;;;;;;16.70;10.40;;;2.20;99.90;;;;;;4969722;28;20054;-77
2023/03/10 00:10:29;;;;;;;18.40;10.33;;;2.20;99.90;;;;;;4989527;28;20056;-77
2023/03/10 00:12:54;;;;;;;18.30;10.37;;;2.20;99.90;;;;;;4988416;28;20423;-77
2023/03/10 00:15:20;;;;;;;17.53;10.03;;;2.20;99.90;;;;;;4970647;28;20046;-77
2023/03/10 00:17:48;;;;;;;9.80;7.33;;;2.20;99.90;;;;;;4988343;28;20074;-76
2023/03/10 00:20:15;;;;;;;14.17;9.10;;;2.20;99.90;;;;;;5007287;28;20037;-77
2023/03/10 00:22:41;;;;;;;17.43;9.30;;;2.20;99.90;;;;;;5005175;28;20046;-76
2023/03/10 00:25:08;;;;;;;15.67;9.43;;;2.20;99.90;;;;;;5005753;28;20375;-77
2023/03/10 00:27:34;;;;;;;18.50;10.47;;;2.20;99.90;;;;;;4994151;28;20046;-77
2023/03/10 00:29:59;;;;;;;17.27;8.57;;;2.20;99.90;;;;;;4986706;28;20049;-77
2023/03/10 00:32:25;;;;;;;14.63;8.77;;;2.20;99.90;;;;;;5000163;28;20474;-77
2023/03/10 00:34:51;;;;;;;15.67;11.27;;;2.20;99.90;;;;;;4979256;28;20034;-77
2023/03/10 00:37:17;;;;;;;13.50;8.50;;;2.20;99.90;;;;;;4999998;28;20133;-76
2023/03/10 00:39:43;;;;;;;11.00;8.50;;;2.20;99.90;;;;;;5005259;28;20049;-77
2023/03/10 00:42:09;;;;;;;13.07;8.67;;;2.20;99.90;;;;;;4998771;28;20042;-76
2023/03/10 00:44:34;;;;;;;14.03;7.63;;;2.20;99.90;;;;;;4971347;28;20046;-77
2023/03/10 00:47:00;;;;;;;11.73;9.00;;;2.20;99.90;;;;;;4995268;28;20052;-78
2023/03/10 00:49:25;;;;;;;11.73;8.50;;;2.20;99.90;;;;;;4989814;28;20051;-77
2023/03/10 00:51:51;;;;;;;12.00;8.13;;;2.20;99.90;;;;;;5004439;28;20433;-77
2023/03/10 00:54:17;;;;;;;14.00;9.03;;;2.20;99.90;;;;;;5006108;28;20084;-77
2023/03/10 00:56:42;;;;;;;13.03;9.17;;;2.20;99.90;;;;;;4993808;28;20511;-76
2023/03/10 00:59:11;;;;;;;17.93;10.73;;;2.20;99.90;;;;;;5002115;28;20049;-77
2023/03/10 01:01:39;;;;;;;28.70;10.23;;;2.20;99.90;;;;;;4999989;28;20038;-77
2023/03/10 01:04:08;;;;;;;14.43;10.10;;;2.20;99.90;;;;;;4986057;28;20133;-77
2023/03/10 01:06:34;;;;;;;19.17;12.97;;;2.20;99.90;;;;;;4971968;28;20050;-77
2023/03/10 01:09:00;;;;;;;13.73;11.07;;;2.20;99.90;;;;;;4988853;28;20108;-77
2023/03/10 01:11:28;;;;;;;23.77;16.50;;;2.20;99.90;;;;;;5003455;28;20038;-77
2023/03/10 01:13:57;;;;;;;17.33;11.53;;;2.20;99.90;;;;;;4998282;28;20034;-77
2023/03/10 01:16:22;;;;;;;17.40;11.60;;;2.20;99.90;;;;;;4994873;28;20137;-77
2023/03/10 01:18:48;;;;;;;23.27;12.40;;;2.20;99.90;;;;;;4998980;28;20476;-77
2023/03/10 01:21:18;;;;;;;26.57;13.23;;;2.20;99.90;;;;;;4987030;28;20575;-77
2023/03/10 01:23:44;;;;;;;20.13;12.87;;;2.20;99.90;;;;;;4986263;28;20048;-76
2023/03/10 01:26:09;;;;;;;17.80;11.67;;;2.20;99.90;;;;;;4987638;28;20034;-76
2023/03/10 01:28:35;;;;;;;22.93;14.30;;;2.20;99.90;;;;;;4985990;28;20050;-77
2023/03/10 01:31:00;;;;;;;16.03;9.87;;;2.20;99.90;;;;;;4986657;28;20126;-77
2023/03/10 01:33:26;;;;;;;15.63;11.97;;;2.20;99.90;;;;;;4997997;28;20120;-77
2023/03/10 01:35:52;;;;;;;19.87;13.53;;;2.20;99.90;;;;;;4988493;28;20441;-77
2023/03/10 01:38:17;;;;;;;20.37;12.07;;;2.20;99.90;;;;;;4987213;28;20042;-77
2023/03/10 01:40:49;;;;;;;19.70;13.90;;;2.30;99.90;;;;;;4988732;28;20042;-77
2023/03/10 01:43:29;;;;;;;18.33;12.47;;;2.20;99.90;;;;;;5004469;28;20124;-77
2023/03/10 01:46:01;;;;;;;22.23;12.30;;;2.30;99.90;;;;;;4993286;28;20092;-77
2023/03/10 01:48:32;;;;;;;18.53;11.87;;;2.30;99.90;;;;;;4990678;28;20244;-77
2023/03/10 01:50:58;;;;;;;27.27;11.37;;;2.30;99.90;;;;;;4985579;28;20289;-77
2023/03/10 01:53:27;;;;;;;19.23;9.63;;;2.30;99.90;;;;;;5002815;28;20406;-77
2023/03/10 01:55:58;;;;;;;17.83;9.57;;;2.30;99.90;;;;;;5000201;28;20117;-77
2023/03/10 01:58:28;;;;;;;11.40;7.80;;;2.20;99.90;;;;;;4989010;28;20414;-77
2023/03/10 02:03:33;;;;;;;12.70;10.73;;;2.20;99.90;;;;;;5042090;26;20052;-73
2023/03/10 02:06:05;;;;;;;9.23;7.27;;;2.20;99.90;;;;;;5045736;28;20092;-74
2023/03/10 02:08:44;;;;;;;13.38;8.18;;;2.20;99.90;;;;;;5042939;28;20527;-74
2023/03/10 02:11:12;;;;;;;11.67;8.03;;;2.20;99.90;;;;;;5029293;28;20683;-73
2023/03/10 02:13:37;;;;;;;17.00;8.33;;;2.30;99.90;;;;;;5044853;28;20412;-73
2023/03/10 02:16:03;;;;;;;8.60;5.93;;;2.20;99.90;;;;;;5044966;28;20120;-73
2023/03/10 02:18:30;;;;;;;15.17;7.97;;;2.20;99.90;;;;;;5045018;28;20148;-73
2023/03/10 02:21:32;;;;;;;13.57;7.93;;;2.20;99.90;;;;;;5045108;28;20102;-74
2023/03/10 02:24:01;;;;;;;8.32;6.00;;;2.20;99.90;;;;;;5025640;28;20052;-74
2023/03/10 02:26:51;;;;;;;8.97;7.87;;;2.20;99.90;;;;;;5019237;28;20094;-74
2023/03/10 02:29:31;;;;;;;12.23;6.90;;;2.20;99.90;;;;;;5044540;28;20508;-74
2023/03/10 02:31:57;;;;;;;11.17;6.17;;;2.20;99.90;;;;;;5045557;28;20090;-73
2023/03/10 02:34:25;;;;;;;15.27;8.67;;;2.20;99.90;;;;;;5044440;28;20124;-74
2023/03/10 02:36:51;;;;;;;16.60;8.67;;;2.20;99.90;;;;;;5043752;28;20116;-74
2023/03/10 02:39:16;;;;;;;16.23;9.30;;;2.20;99.90;;;;;;5044176;28;20116;-74
2023/03/10 02:41:43;;;;;;;13.10;8.87;;;2.20;99.90;;;;;;5044526;28;20463;-74
2023/03/10 02:44:12;;;;;;;9.27;7.90;;;2.20;99.90;;;;;;5044411;28;20045;-73
2023/03/10 02:46:38;;;;;;;14.37;8.47;;;2.20;99.90;;;;;;5044274;28;20029;-73
2023/03/10 02:49:06;;;;;;;9.07;6.73;;;2.20;99.90;;;;;;5044399;28;20519;-74
2023/03/10 02:51:38;;;;;;;10.73;8.47;;;2.20;99.90;;;;;;5043774;28;20052;-75
2023/03/10 02:54:06;;;;;;;11.53;7.77;;;2.20;99.90;;;;;;5044433;28;20049;-73
2023/03/10 02:56:33;;;;;;;13.90;8.77;;;2.20;99.90;;;;;;5026745;28;20073;-73
2023/03/10 02:59:00;;;;;;;10.17;7.57;;;2.20;99.90;;;;;;5026731;28;20040;-73
2023/03/10 03:01:26;;;;;;;9.20;7.40;;;2.20;99.90;;;;;;5044757;28;20488;-73
2023/03/10 03:03:52;;;;;;;12.90;8.27;;;2.20;99.90;;;;;;5028763;28;20049;-73
2023/03/10 03:06:18;;;;;;;8.07;7.00;;;2.20;99.90;;;;;;5029888;28;20044;-75
2023/03/10 03:08:44;;;;;;;12.87;8.70;;;2.20;99.90;;;;;;5047193;28;20037;-73
2023/03/10 03:11:09;;;;;;;10.80;7.07;;;2.10;99.90;;;;;;5063293;28;20049;-73
2023/03/10 03:13:35;;;;;;;11.03;7.97;;;2.20;99.90;;;;;;5048227;28;20043;-73
2023/03/10 03:16:01;;;;;;;11.00;6.87;;;2.20;99.90;;;;;;5048156;28;20123;-74
2023/03/10 03:18:26;;;;;;;10.63;8.40;;;2.20;99.90;;;;;;5048015;28;20040;-74
2023/03/10 03:20:52;;;;;;;10.77;7.67;;;2.20;99.90;;;;;;5048183;28;20044;-73
2023/03/10 03:23:18;;;;;;;12.60;8.30;;;2.20;99.90;;;;;;5046969;28;20044;-74
2023/03/10 03:25:43;;;;;;;14.07;9.20;;;2.20;99.90;;;;;;5030049;28;20037;-74
2023/03/10 03:28:10;;;;;;;9.00;7.70;;;2.10;99.90;;;;;;5047296;28;20503;-73
2023/03/10 03:30:37;;;;;;;17.50;9.77;;;2.10;99.90;;;;;;5029985;28;20049;-73
2023/03/10 03:33:04;;;;;;;11.73;8.10;;;2.10;99.90;;;;;;5047242;28;20049;-73
2023/03/10 03:35:35;;;;;;;13.80;10.73;;;2.10;99.90;;;;;;5010490;28;20049;-75
2023/03/10 03:38:02;;;;;;;27.63;11.13;;;2.10;99.90;;;;;;5044174;28;20045;-75
2023/03/10 03:40:32;;;;;;;18.63;10.63;;;2.10;99.90;;;;;;5030106;28;20405;-74
2023/03/10 03:42:58;;;;;;;13.23;9.53;;;2.10;99.90;;;;;;5047617;28;20538;-74
2023/03/10 03:45:26;;;;;;;17.63;10.33;;;2.10;99.90;;;;;;5046819;28;20048;-74
2023/03/10 03:47:52;;;;;;;15.53;9.30;;;2.10;99.90;;;;;;5029412;28;20072;-74
2023/03/10 03:50:19;;;;;;;17.23;9.90;;;2.10;99.90;;;;;;5047142;28;20068;-74
2023/03/10 03:52:46;;;;;;;19.03;10.70;;;2.00;99.90;;;;;;5028555;28;20443;-74
2023/03/10 03:55:13;;;;;;;13.93;8.33;;;2.00;99.90;;;;;;5029536;28;20048;-74
2023/03/10 03:57:39;;;;;;;16.17;10.10;;;2.00;99.90;;;;;;5047255;28;20045;-73
2023/03/10 04:00:11;;;;;;;21.13;12.33;;;2.00;99.90;;;;;;5046932;28;20056;-73
2023/03/10 04:02:36;;;;;;;12.40;9.63;;;2.00;99.90;;;;;;5029199;28;20136;-74
2023/03/10 04:05:03;;;;;;;12.90;8.53;;;1.90;99.90;;;;;;5047161;28;20129;-75
2023/03/10 04:07:29;;;;;;;18.63;9.67;;;2.00;99.90;;;;;;5028827;28;20059;-74
2023/03/10 04:09:55;;;;;;;15.40;10.97;;;1.90;99.90;;;;;;5047732;28;20045;-74
2023/03/10 04:12:20;;;;;;;19.27;11.70;;;1.90;99.90;;;;;;5046872;28;20044;-73
2023/03/10 04:14:46;;;;;;;19.10;12.80;;;1.90;99.90;;;;;;5011873;28;20045;-74
2023/03/10 04:17:12;;;;;;;12.73;9.53;;;1.90;99.90;;;;;;5047025;28;20048;-74
2023/03/10 04:19:37;;;;;;;21.27;12.33;;;1.90;99.90;;;;;;5029201;28;20064;-73
2023/03/10 04:22:03;;;;;;;16.77;11.23;;;1.90;99.90;;;;;;5045690;28;20373;-74
2023/03/10 04:24:28;;;;;;;14.53;9.83;;;1.90;99.90;;;;;;5047456;28;20057;-73
2023/03/10 04:26:54;;;;;;;15.80;9.33;;;1.90;99.90;;;;;;5046847;28;20094;-74
2023/03/10 04:29:23;;;;;;;21.03;11.63;;;1.80;99.90;;;;;;5046205;28;20053;-74
2023/03/10 04:31:50;;;;;;;17.80;11.13;;;1.80;99.90;;;;;;5047279;28;20098;-73
2023/03/10 04:34:16;;;;;;;18.57;12.20;;;1.80;99.90;;;;;;5046721;28;20041;-74
2023/03/10 04:36:41;;;;;;;19.10;9.67;;;1.70;99.90;;;;;;5045479;28;20823;-74
2023/03/10 04:39:08;;;;;;;17.47;11.23;;;1.70;99.90;;;;;;5028317;28;20147;-74
2023/03/10 04:41:35;;;;;;;22.73;11.73;;;1.70;99.90;;;;;;5046295;28;20079;-73
2023/03/10 04:44:01;;;;;;;17.63;11.87;;;1.70;99.90;;;;;;5045768;28;20049;-75
2023/03/10 04:46:26;;;;;;;14.63;9.47;;;1.60;99.90;;;;;;5028860;28;20404;-74
2023/03/10 04:48:54;;;;;;;15.33;9.93;;;1.60;99.90;;;;;;5061843;28;20052;-74
2023/03/10 04:51:20;;;;;;;16.60;12.70;;;1.60;99.90;;;;;;5027211;28;20053;-74
2023/03/10 04:53:46;;;;;;;19.77;13.83;;;1.50;99.90;;;;;;5046027;28;20037;-74
2023/03/10 04:56:12;;;;;;;21.50;10.93;;;1.60;99.90;;;;;;5046258;28;20041;-75
2023/03/10 04:58:37;;;;;;;18.50;11.30;;;1.60;99.90;;;;;;5027844;28;20107;-74
2023/03/10 05:01:11;;;;;;;21.33;14.70;;;1.60;99.90;;;;;;5045955;28;20060;-74
2023/03/10 05:03:37;;;;;;;13.87;10.80;;;1.50;99.90;;;;;;5046189;28;20100;-74
2023/03/10 05:06:04;;;;;;;15.97;12.87;;;1.50;99.90;;;;;;5044743;28;20053;-74
2023/03/10 05:08:29;;;;;;;21.33;12.13;;;1.50;99.90;;;;;;5046032;28;20051;-76
2023/03/10 05:10:55;;;;;;;14.10;10.80;;;1.50;99.90;;;;;;5046334;28;20116;-74
2023/03/10 05:13:21;;;;;;;17.93;11.17;;;1.50;99.90;;;;;;5027334;28;20343;-74
2023/03/10 05:15:47;;;;;;;19.03;11.37;;;1.50;99.90;;;;;;5046039;28;20056;-74
2023/03/10 05:18:13;;;;;;;21.53;11.73;;;1.50;99.90;;;;;;5045646;28;20132;-74
2023/03/10 05:20:39;;;;;;;18.63;11.67;;;1.50;99.90;;;;;;5045313;28;20124;-74
2023/03/10 05:23:05;;;;;;;14.53;10.43;;;1.50;99.90;;;;;;5044114;28;20123;-74
2023/03/10 05:25:31;;;;;;;21.53;12.53;;;1.50;99.90;;;;;;5045802;28;20466;-74
2023/03/10 05:27:57;;;;;;;25.83;14.10;;;1.50;99.90;;;;;;5045436;28;20037;-74
2023/03/10 05:30:22;;;;;;;30.57;12.47;;;1.40;99.90;;;;;;5045157;28;20045;-74
2023/03/10 05:32:48;;;;;;;18.67;13.27;;;1.40;99.90;;;;;;5045769;28;20489;-73
2023/03/10 05:35:14;;;;;;;20.83;12.00;;;1.40;99.90;;;;;;5045220;28;20041;-73
2023/03/10 05:37:41;;;;;;;23.90;14.40;;;1.40;99.90;;;;;;5044587;28;21646;-74
2023/03/10 05:40:18;;;;;;;22.03;16.13;;;1.40;99.90;;;;;;5044442;28;20032;-74
2023/03/10 05:42:44;;;;;;;24.17;15.63;;;1.40;99.90;;;;;;5045167;28;20037;-74
2023/03/10 05:45:10;;;;;;;30.23;17.50;;;1.40;99.90;;;;;;5044839;28;20514;-74
2023/03/10 05:47:35;;;;;;;31.40;15.93;;;1.40;99.90;;;;;;5044391;28;20045;-75
2023/03/10 05:50:01;;;;;;;31.57;18.37;;;1.40;99.90;;;;;;5026784;28;20535;-73
2023/03/10 05:52:27;;;;;;;25.43;17.67;;;1.40;99.90;;;;;;5043992;28;20045;-74
2023/03/10 05:54:53;;;;;;;27.27;16.17;;;1.30;99.90;;;;;;5027070;28;20045;-75
2023/03/10 05:57:18;;;;;;;35.10;18.37;;;1.40;99.90;;;;;;5026756;28;20041;-74
2023/03/10 05:59:44;;;;;;;32.37;16.40;;;1.30;99.90;;;;;;5045187;28;20106;-74
2023/03/10 06:02:09;;;;;;;28.87;16.33;;;1.30;99.90;;;;;;5044827;28;20045;-74
2023/03/10 06:04:35;;;;;;;32.30;17.67;;;1.30;99.90;;;;;;5044505;28;20045;-74
2023/03/10 06:07:01;;;;;;;25.60;15.47;;;1.30;99.90;;;;;;5026235;28;20047;-75
2023/03/10 06:09:29;;;;;;;21.60;16.53;;;1.30;99.90;;;;;;5022711;28;20057;-75
2023/03/10 06:11:55;;;;;;;27.03;16.40;;;1.30;99.90;;;;;;5020056;28;20052;-74
2023/03/10 06:14:21;;;;;;;34.93;17.67;;;1.30;99.90;;;;;;5044587;28;20029;-74
2023/03/10 06:16:50;;;;;;;25.17;14.17;;;1.30;99.90;;;;;;5045203;28;20408;-74
2023/03/10 06:19:19;;;;;;;36.07;18.47;;;1.30;99.90;;;;;;5044270;28;20120;-74
2023/03/10 06:21:45;;;;;;;26.60;15.23;;;1.30;99.90;;;;;;5025389;28;20061;-74
2023/03/10 06:24:10;;;;;;;25.50;15.20;;;1.30;99.90;;;;;;5009455;28;20070;-75
2023/03/10 06:26:37;;;;;;;20.53;11.70;;;1.30;99.90;;;;;;5026400;28;20055;-73
2023/03/10 06:29:03;;;;;;;27.03;15.47;;;1.30;99.90;;;;;;5010018;28;20041;-74
2023/03/10 06:31:29;;;;;;;22.30;13.07;;;1.30;99.90;;;;;;5027448;28;20514;-73
2023/03/10 06:33:54;;;;;;;17.70;12.10;;;1.20;99.90;;;;;;5042744;28;20048;-73
2023/03/10 06:36:22;;;;;;;17.87;11.67;;;1.30;99.90;;;;;;5009026;28;20504;-74
2023/03/10 06:38:47;;;;;;;27.80;14.07;;;1.30;99.90;;;;;;5046261;28;20114;-74
2023/03/10 06:41:13;;;;;;;21.63;14.60;;;1.20;99.90;;;;;;5029452;28;20037;-74
2023/03/10 06:43:40;;;;;;;20.90;12.97;;;1.30;99.90;;;;;;5012857;28;20124;-74
2023/03/10 06:46:08;;;;;;;21.83;12.97;;;1.20;99.90;;;;;;5046805;28;20040;-74
2023/03/10 06:48:34;;;;;;;26.20;12.90;;;1.30;99.90;;;;;;5063031;28;20543;-74
2023/03/10 06:51:00;;;;;;;17.10;10.43;;;1.20;99.90;;;;;;5023339;28;20051;-75
2023/03/10 06:53:26;;;;;;;18.80;11.73;;;1.20;99.90;;;;;;5046639;28;20360;-74
2023/03/10 06:56:00;;;;;;;27.40;13.57;;;1.20;99.90;;;;;;5005688;28;20157;-74
2023/03/10 06:58:26;;;;;;;17.03;11.87;;;1.30;99.90;;;;;;5036431;28;20033;-74
2023/03/10 07:00:52;;;;;;;15.70;12.00;;;1.30;99.90;;;;;;5034440;28;20052;-74
2023/03/10 07:03:17;;;;;;;12.97;11.03;;;1.30;99.90;;;;;;5044994;28;20051;-74
2023/03/10 07:05:43;;;;;;;20.07;13.50;;;1.30;99.90;;;;;;5066739;28;20420;-74
2023/03/10 07:08:09;;;;;;;22.40;12.57;;;1.30;99.90;;;;;;5057137;28;20152;-73
2023/03/10 07:10:34;;;;;;;22.20;9.93;;;1.30;99.90;;;;;;5030969;28;20461;-73
2023/03/10 07:13:01;;;;;;;14.80;9.53;;;1.30;99.90;;;;;;5028803;28;20080;-74
2023/03/10 07:15:27;;;;;;;18.67;11.13;;;1.30;99.90;;;;;;5045260;28;20065;-73
2023/03/10 07:17:55;;;;;;;14.13;9.70;;;1.30;99.90;;;;;;5037234;28;20049;-73
2023/03/10 07:20:22;;;;;;;14.70;10.80;;;1.30;99.90;;;;;;5035365;28;20116;-74
2023/03/10 07:22:47;;;;;;;12.90;9.60;;;1.30;99.90;;;;;;5060955;28;20075;-73
2023/03/10 07:25:13;;;;;;;20.40;10.63;;;1.40;99.90;;;;;;5046701;28;20036;-73
2023/03/10 07:27:38;;;;;;;14.33;9.37;;;1.40;99.90;;;;;;5061537;28;20459;-74
2023/03/10 07:30:05;;;;;;;23.90;12.20;;;1.40;99.90;;;;;;5047325;28;20112;-73
2023/03/10 07:32:31;;;;;;;13.27;9.87;;;1.40;99.90;;;;;;5054808;28;20389;-72
2023/03/10 07:34:57;;;;;;;13.70;8.47;;;1.40;99.90;;;;;;5030741;28;20048;-72
2023/03/10 07:37:22;;;;;;;15.23;9.07;;;1.40;99.90;;;;;;5030750;28;20045;-73
2023/03/10 07:39:48;;;;;;;21.00;10.93;;;1.40;99.90;;;;;;5026939;28;20511;-72
2023/03/10 07:42:13;;;;;;;10.73;9.50;;;1.40;99.90;;;;;;5045624;28;20052;-73
2023/03/10 07:44:39;;;;;;;14.17;8.73;;;1.50;99.90;;;;;;5020766;28;20049;-72
2023/03/10 07:47:05;;;;;;;13.43;8.40;;;1.50;99.90;;;;;;5007132;28;20042;-74
2023/03/10 07:49:30;;;;;;;16.27;9.87;;;1.50;99.90;;;;;;5053281;28;20041;-74
2023/03/10 07:51:56;;;;;;;16.10;10.67;;;1.40;99.90;;;;;;5049196;28;20429;-72
2023/03/10 07:54:22;;;;;;;18.33;9.93;;;1.50;99.90;;;;;;5024419;28;20059;-73
2023/03/10 07:56:47;;;;;;;20.37;10.47;;;1.50;99.90;;;;;;5059284;28;20041;-72
2023/03/10 07:59:13;;;;;;;20.10;9.87;;;1.50;99.90;;;;;;5046033;28;20051;-72
2023/03/10 08:01:38;;;;;;;10.53;8.13;;;1.50;99.90;;;;;;5051064;28;20080;-72
2023/03/10 08:04:05;;;;;;;12.00;7.67;;;1.50;99.90;;;;;;5028761;28;20081;-73
2023/03/10 08:06:32;;;;;;;15.37;8.83;;;1.50;99.90;;;;;;5045349;28;20036;-73
2023/03/10 08:08:58;;;;;;;18.53;10.27;;;1.50;99.90;;;;;;5028386;28;20345;-73
2023/03/10 08:11:23;;;;;;;15.67;9.67;;;1.50;99.90;;;;;;5046202;28;20106;-73
2023/03/10 08:13:49;;;;;;;27.83;9.73;;;1.50;99.90;;;;;;5046314;28;20041;-72
2023/03/10 08:16:17;;;;;;;17.43;9.73;;;1.50;99.90;;;;;;5063910;28;20076;-73
2023/03/10 08:18:43;;;;;;;14.50;10.63;;;1.50;99.90;;;;;;5046631;28;20381;-73
2023/03/10 08:21:08;;;;;;;17.07;10.53;;;1.50;99.90;;;;;;5027266;28;20044;-73
2023/03/10 08:23:35;;;;;;;17.37;10.17;;;1.50;99.90;;;;;;5011640;28;20399;-73
2023/03/10 08:26:07;;;;;;;18.67;11.57;;;1.50;99.90;;;;;;5045846;28;20048;-72
2023/03/10 08:28:34;;;;;;;22.60;13.70;;;1.50;99.90;;;;;;5045174;28;20060;-73
2023/03/10 08:31:06;;;;;;;24.20;11.33;;;1.50;99.90;;;;;;5048024;28;20504;-75
2023/03/10 08:33:32;;;;;;;20.70;12.27;;;1.50;99.90;;;;;;5030977;28;20070;-73
2023/03/10 08:36:08;;;;;;;23.57;13.97;;;1.50;99.90;;;;;;5027728;28;20047;-73
2023/03/10 08:38:34;;;;;;;18.97;11.63;;;1.50;99.90;;;;;;5011293;28;20059;-72
2023/03/10 08:41:18;;;;;;;34.33;12.83;;;1.60;99.90;;;;;;5044944;28;20041;-72
2023/03/10 08:43:44;;;;;;;29.70;13.17;;;1.60;99.90;;;;;;5036433;28;20044;-71
2023/03/10 08:46:12;;;;;;;17.00;11.90;;;1.60;99.90;;;;;;5045357;28;20041;-72
2023/03/10 08:48:38;;;;;;;20.43;11.50;;;1.60;99.90;;;;;;5028224;28;20041;-71
2023/03/10 08:51:04;;;;;;;18.87;11.43;;;1.60;99.90;;;;;;5044471;28;20056;-71
2023/03/10 08:53:32;;;;;;;18.63;12.37;;;1.60;99.90;;;;;;5028469;28;20041;-73
2023/03/10 08:55:58;;;;;;;17.47;11.80;;;1.60;99.90;;;;;;5029896;28;20056;-73
2023/03/10 08:58:24;;;;;;;13.83;11.00;;;1.60;99.90;;;;;;5036884;28;20049;-73
2023/03/10 09:00:49;;;;;;;24.27;13.03;;;1.60;99.90;;;;;;5032148;28;20051;-70
2023/03/10 09:03:15;;;;;;;14.83;11.83;;;1.60;99.90;;;;;;5034950;28;20450;-71
2023/03/10 09:05:42;;;;;;;21.33;13.10;;;1.60;99.90;;;;;;5037947;28;20037;-72
2023/03/10 09:08:08;;;;;;;17.63;13.03;;;1.60;99.90;;;;;;4990756;28;20049;-72
2023/03/10 09:10:35;;;;;;;17.73;11.97;;;1.60;99.90;;;;;;5010748;28;20049;-73
2023/03/10 09:13:00;;;;;;;19.07;11.33;;;1.60;99.90;;;;;;5036893;28;20075;-72
2023/03/10 09:15:26;;;;;;;17.20;9.77;;;1.70;99.90;;;;;;5050926;28;20033;-70
2023/03/10 09:17:52;;;;;;;18.27;11.27;;;1.70;99.90;;;;;;5029792;28;20049;-70
2023/03/10 09:20:21;;;;;;;17.77;9.97;;;1.70;99.90;;;;;;5046007;28;20477;-72
2023/03/10 09:22:47;;;;;;;16.27;12.13;;;1.70;99.90;;;;;;5045253;28;20098;-70
2023/03/10 09:25:12;;;;;;;21.57;12.37;;;1.80;99.90;;;;;;5044895;28;20458;-70
2023/03/10 09:27:38;;;;;;;17.10;9.97;;;1.80;99.90;;;;;;5044847;28;20132;-70
2023/03/10 09:30:04;;;;;;;17.90;11.40;;;1.80;99.90;;;;;;5044747;28;20033;-71
2023/03/10 09:32:30;;;;;;;16.77;11.83;;;1.80;99.90;;;;;;5027550;28;20045;-72
2023/03/10 09:34:55;;;;;;;18.30;10.97;;;1.80;99.90;;;;;;5045494;28;20033;-71
2023/03/10 09:37:21;;;;;;;15.90;9.93;;;1.80;99.90;;;;;;5025671;28;20052;-71
2023/03/10 09:39:46;;;;;;;20.07;10.87;;;1.80;99.90;;;;;;5045226;28;20068;-71
2023/03/10 09:42:36;;;;;;;9.73;7.90;;;1.80;99.90;;;;;;5026613;28;20604;-71
2023/03/10 09:45:24;;;;;;;9.23;6.40;;;1.80;99.90;;;;;;5023385;28;20489;-72
2023/03/10 09:48:22;;;;;;;10.77;8.43;;;1.80;99.90;;;;;;5042817;28;21074;-72
2023/03/10 09:50:51;;;;;;;14.40;10.63;;;1.80;99.90;;;;;;5023575;28;20095;-71
2023/03/10 09:53:44;;;;;;;12.13;7.53;;;1.80;99.90;;;;;;4993515;28;20041;-72
2023/03/10 09:56:18;;;;;;;12.53;9.67;;;1.80;99.90;;;;;;5026686;28;20451;-72
2023/03/10 09:58:51;;;;;;;14.40;9.53;;;1.80;99.90;;;;;;5026559;28;20365;-72
2023/03/10 10:01:24;;;;;;;17.43;10.40;;;1.80;99.90;;;;;;5025928;28;20049;-72
2023/03/10 10:03:56;;;;;;;14.35;7.93;;;1.80;99.90;;;;;;5044218;28;20386;-71
2023/03/10 10:06:35;;;;;;;14.67;9.40;;;1.90;99.90;;;;;;5025264;28;20049;-72
2023/03/10 10:09:27;;;;;;;19.67;10.97;;;1.90;99.90;;;;;;5009394;28;20463;-72
2023/03/10 10:11:54;;;;;;;13.63;12.23;;;1.90;99.90;;;;;;5015430;28;20053;-72
2023/03/10 10:14:26;;;;;;;15.83;10.53;;;2.00;99.90;;;;;;5043240;28;20378;-71
2023/03/10 10:17:12;;;;;;;16.65;12.18;;;2.00;99.90;;;;;;5044309;28;20044;-72
2023/03/10 10:19:39;;;;;;;21.80;12.57;;;2.00;99.90;;;;;;5026015;28;20048;-72
2023/03/10 10:22:27;;;;;;;15.53;9.57;;;2.00;99.90;;;;;;5008434;28;20029;-71
2023/03/10 10:25:08;;;;;;;14.73;10.07;;;2.00;99.90;;;;;;5043609;28;20040;-72
2023/03/10 10:27:34;;;;;;;14.53;9.33;;;2.00;99.90;;;;;;5026252;28;20080;-72
2023/03/10 10:30:33;;;;;;;16.20;11.40;;;2.00;99.90;;;;;;5043843;28;20029;-72
2023/03/10 10:33:02;;;;;;;15.67;10.20;;;2.00;99.90;;;;;;5026832;28;20037;-72
2023/03/10 10:35:30;;;;;;;15.93;10.83;;;2.00;99.90;;;;;;5025999;28;20408;-71
2023/03/10 10:38:08;;;;;;;13.53;10.07;;;2.00;99.90;;;;;;5044509;28;20401;-71
2023/03/10 10:40:45;;;;;;;17.93;12.30;;;2.00;99.90;;;;;;5009328;28;20052;-71
2023/03/10 10:43:16;;;;;;;18.00;11.50;;;2.00;99.90;;;;;;5043937;28;20072;-70
2023/03/10 10:45:42;;;;;;;23.27;14.63;;;2.00;99.90;;;;;;5025711;28;20045;-71
2023/03/10 10:48:37;;;;;;;20.17;13.00;;;2.00;99.90;;;;;;5009227;28;20048;-72
2023/03/10 10:51:04;;;;;;;20.70;12.23;;;2.00;99.90;;;;;;5042586;28;20582;-71
2023/03/10 10:53:42;;;;;;;16.57;11.80;;;2.00;99.90;;;;;;5043895;28;20033;-72
2023/03/10 10:56:17;;;;;;;22.33;10.23;;;2.00;99.90;;;;;;5043269;28;20040;-71
2023/03/10 10:59:02;;;;;;;33.03;14.63;;;2.00;99.90;;;;;;5025962;28;20041;-72
2023/03/10 11:01:51;;;;;;;19.53;11.33;;;2.00;99.90;;;;;;5006455;28;20524;-72
2023/03/10 11:04:17;;;;;;;26.57;11.67;;;2.10;99.90;;;;;;5023164;28;20049;-71
2023/03/10 11:06:44;;;;;;;16.47;10.90;;;2.10;99.90;;;;;;5021565;28;20042;-71
2023/03/10 11:09:17;;;;;;;17.53;13.40;;;2.10;99.90;;;;;;5023957;28;20033;-73
2023/03/10 11:12:04;;;;;;;16.53;10.53;;;2.10;99.90;;;;;;5022376;28;20041;-74
2023/03/10 11:14:52;;;;;;;17.17;11.47;;;2.10;99.90;;;;;;5023450;28;20564;-75
2023/03/10 11:17:28;;;;;;;19.10;10.83;;;2.20;99.90;;;;;;5023998;28;20042;-73
2023/03/10 11:20:07;;;;;;;14.10;11.27;;;2.20;99.90;;;;;;5028907;28;20041;-73
2023/03/10 11:22:38;;;;;;;20.77;14.47;;;2.20;99.90;;;;;;5033292;28;20045;-73
2023/03/10 11:25:24;;;;;;;19.80;12.00;;;2.30;99.90;;;;;;5008063;28;20048;-73
2023/03/10 11:27:53;;;;;;;20.17;12.67;;;2.30;99.90;;;;;;5026532;28;20056;-74
2023/03/10 11:30:31;;;;;;;14.43;11.90;;;2.40;99.90;;;;;;5025803;28;20565;-73
2023/03/10 11:33:12;;;;;;;25.43;12.50;;;2.40;99.90;;;;;;5029297;28;20064;-73
2023/03/10 11:35:44;;;;;;;24.87;14.07;;;2.40;99.90;;;;;;5008907;28;20054;-74
2023/03/10 11:38:27;;;;;;;17.95;10.10;;;2.40;99.90;;;;;;5025976;28;20490;-74
2023/03/10 11:41:09;;;;;;;17.37;9.93;;;2.40;99.90;;;;;;5018555;28;20557;-73
2023/03/10 11:43:50;;;;;;;15.68;8.75;;;2.30;99.90;;;;;;5023530;28;20255;-76
2023/03/10 11:46:21;;;;;;;18.10;10.60;;;2.40;99.90;;;;;;5043191;28;20124;-77
2023/03/10 11:48:55;;;;;;;14.67;9.43;;;2.30;99.90;;;;;;5020382;28;20053;-76
2023/03/10 11:51:36;;;;;;;15.07;8.30;;;2.30;99.90;;;;;;5024438;28;20037;-77
2023/03/10 11:54:27;;;;;;;13.10;7.77;;;2.30;99.90;;;;;;5026659;28;20088;-79
2023/03/10 11:56:54;;;;;;;11.70;7.93;;;2.30;99.90;;;;;;5053259;28;20059;-77
2023/03/10 11:59:28;;;;;;;9.23;7.27;;;2.30;99.90;;;;;;5066243;28;20041;-77
2023/03/10 12:01:56;;;;;;;15.10;9.00;;;2.30;99.90;;;;;;5033697;28;20084;-75
2023/03/10 12:04:40;;;;;;;14.20;8.77;;;2.30;99.90;;;;;;5047356;28;20055;-75
2023/03/10 12:07:27;;;;;;;15.07;7.33;;;2.30;99.90;;;;;;5027357;28;20037;-76
2023/03/10 12:09:56;;;;;;;17.63;9.00;;;2.30;99.90;;;;;;5019295;28;20041;-76
2023/03/10 12:12:35;;;;;;;11.70;6.43;;;2.30;99.90;;;;;;5028578;28;20062;-75
2023/03/10 12:15:11;;;;;;;9.60;6.87;;;2.30;99.90;;;;;;5047084;28;20676;-75
2023/03/10 12:17:39;;;;;;;12.80;7.33;;;2.30;99.90;;;;;;5028159;28;20108;-75
2023/03/10 12:20:14;;;;;;;14.20;9.87;;;2.40;99.90;;;;;;5027583;28;20397;-76
2023/03/10 12:22:56;;;;;;;6.13;4.80;;;2.40;99.90;;;;;;5046389;28;20048;-76
2023/03/10 12:25:28;;;;;;;16.25;6.75;;;2.40;99.90;;;;;;5011740;28;20110;-75
2023/03/10 12:28:14;;;;;;;11.10;7.88;;;2.40;99.90;;;;;;5029691;28;20489;-75
2023/03/10 12:31:02;;;;;;;14.80;8.63;;;2.50;99.90;;;;;;5045886;28;20068;-75
2023/03/10 12:33:30;;;;;;;15.73;7.10;;;2.50;99.90;;;;;;5028739;28;20040;-74
2023/03/10 12:36:08;;;;;;;20.40;9.03;;;2.50;99.90;;;;;;5044878;28;20063;-75
2023/03/10 12:38:58;;;;;;;9.67;7.50;;;2.50;99.90;;;;;;5029017;28;20052;-74
2023/03/10 12:41:26;;;;;;;10.17;6.57;;;2.50;99.90;;;;;;5045733;28;20170;-76
2023/03/10 12:44:23;;;;;;;8.77;4.57;;;2.50;99.90;;;;;;5027005;28;20044;-76
2023/03/10 12:47:07;;;;;;;15.10;5.50;;;2.40;99.90;;;;;;5022005;28;20040;-75
2023/03/10 12:49:53;;;;;;;13.13;6.23;;;2.40;99.90;;;;;;5026905;28;20060;-75
2023/03/10 12:52:37;;;;;;;14.10;7.63;;;2.40;99.90;;;;;;5052280;28;20505;-73
2023/03/10 12:55:03;;;;;;;6.63;5.13;;;2.40;99.90;;;;;;5047793;28;20055;-74